createdAt,value
2022-11-30T00:01:31.286Z,22.17
2022-11-30T00:03:59.435Z,21.10
2022-11-30T00:06:27.497Z,20.42
2022-11-30T00:08:56.371Z,19.90
2022-11-30T00:11:25.585Z,18.42
2022-11-30T00:13:55.050Z,19.17
2022-11-30T00:16:23.206Z,20.20
2022-11-30T00:18:51.543Z,20.38
2022-11-30T00:21:19.691Z,17.45
2022-11-30T00:23:48.382Z,19.55
2022-11-30T00:26:18.771Z,18.80
2022-11-30T00:28:47.591Z,19.75
2022-11-30T00:31:19.621Z,16.98
2022-11-30T00:33:47.794Z,18.63
2022-11-30T00:36:17.424Z,17.08
2022-11-30T00:38:46.114Z,18.52
2022-11-30T00:41:14.507Z,20.98
2022-11-30T00:43:42.479Z,18.42
2022-11-30T00:46:10.609Z,18.50
2022-11-30T00:48:40.715Z,17.65
2022-11-30T00:51:10.567Z,18.17
2022-11-30T00:53:39.227Z,18.15
2022-11-30T00:56:07.784Z,19.90
2022-11-30T00:58:35.601Z,17.52
2022-11-30T01:01:03.491Z,17.80
2022-11-30T01:03:31.399Z,19.13
2022-11-30T01:06:04.474Z,17.67
2022-11-30T01:08:33.077Z,19.65
2022-11-30T01:11:07.546Z,17.00
2022-11-30T01:13:35.348Z,17.80
2022-11-30T01:16:03.177Z,17.23
2022-11-30T01:18:30.982Z,19.17
2022-11-30T01:20:58.763Z,19.65
2022-11-30T01:23:27.907Z,17.73
2022-11-30T01:25:56.438Z,17.75
2022-11-30T01:28:24.257Z,18.55
2022-11-30T01:30:58.190Z,18.02
2022-11-30T01:33:25.997Z,19.02
2022-11-30T01:36:01.249Z,18.65
2022-11-30T01:38:32.902Z,17.23
2022-11-30T01:41:00.881Z,19.27
2022-11-30T01:43:40.030Z,19.05
2022-11-30T01:46:25.001Z,17.60
2022-11-30T01:49:02.811Z,19.08
2022-11-30T01:51:37.025Z,20.30
2022-11-30T01:54:09.867Z,20.60
2022-11-30T01:56:40.868Z,19.70
2022-11-30T01:59:08.722Z,18.42
2022-11-30T02:01:36.792Z,18.35
2022-11-30T02:04:09.115Z,20.17
2022-11-30T02:06:37.050Z,17.83
2022-11-30T02:09:06.252Z,18.60
2022-11-30T02:11:34.402Z,18.83
2022-11-30T02:14:12.083Z,17.73
2022-11-30T02:16:51.803Z,18.27
2022-11-30T02:19:51.696Z,18.90
2022-11-30T02:22:30.072Z,19.02
2022-11-30T02:25:09.389Z,19.05
2022-11-30T02:27:53.999Z,18.90
2022-11-30T02:30:24.644Z,20.67
2022-11-30T02:32:57.220Z,19.50
2022-11-30T02:35:30.125Z,18.40
2022-11-30T02:37:59.015Z,18.92
2022-11-30T02:40:26.840Z,20.70
2022-11-30T02:42:56.364Z,20.30
2022-11-30T02:45:34.948Z,20.10
2022-11-30T02:48:09.010Z,20.02
2022-11-30T02:50:40.818Z,19.10
2022-11-30T02:53:09.802Z,18.83
2022-11-30T02:55:37.815Z,18.42
2022-11-30T02:58:05.933Z,19.75
2022-11-30T03:00:35.091Z,18.33
2022-11-30T03:03:03.025Z,19.35
2022-11-30T03:05:31.053Z,19.35
2022-11-30T03:07:58.902Z,18.50
2022-11-30T03:10:26.792Z,19.80
2022-11-30T03:12:58.007Z,18.77
2022-11-30T03:15:26.295Z,20.35
2022-11-30T03:17:55.706Z,20.75
2022-11-30T03:20:23.545Z,19.63
2022-11-30T03:22:51.348Z,20.08
2022-11-30T03:25:19.145Z,19.67
2022-11-30T03:27:46.956Z,19.02
2022-11-30T03:30:15.080Z,21.02
2022-11-30T03:32:42.887Z,17.65
2022-11-30T03:35:12.046Z,19.60
2022-11-30T03:37:39.851Z,19.67
2022-11-30T03:40:09.213Z,18.00
2022-11-30T03:42:37.031Z,18.48
2022-11-30T03:45:05.646Z,18.27
2022-11-30T03:47:33.475Z,17.55
2022-11-30T03:50:01.274Z,18.23
2022-11-30T03:52:30.789Z,18.52
2022-11-30T03:54:58.641Z,18.85
2022-11-30T03:57:26.460Z,18.98
2022-11-30T03:59:54.279Z,18.13
2022-11-30T04:02:22.092Z,19.17
2022-11-30T04:04:49.948Z,18.40
2022-11-30T04:07:17.840Z,16.50
2022-11-30T04:09:47.042Z,17.55
2022-11-30T04:12:14.916Z,18.70
2022-11-30T04:14:42.736Z,18.77
2022-11-30T04:17:10.523Z,16.83
2022-11-30T04:19:38.346Z,19.13
2022-11-30T04:22:06.154Z,17.98
2022-11-30T04:24:33.959Z,17.73
2022-11-30T04:27:03.520Z,19.70
2022-11-30T04:29:31.347Z,17.92
2022-11-30T04:31:59.147Z,19.75
2022-11-30T04:34:28.362Z,16.70
2022-11-30T04:37:00.243Z,17.50
2022-11-30T04:39:28.548Z,18.02
2022-11-30T04:41:56.513Z,17.98
2022-11-30T04:44:25.697Z,17.80
2022-11-30T04:46:53.842Z,18.58
2022-11-30T04:49:21.700Z,18.10
2022-11-30T04:51:49.519Z,17.65
2022-11-30T04:54:17.324Z,16.65
2022-11-30T04:56:45.288Z,15.80
2022-11-30T04:59:13.118Z,17.92
2022-11-30T05:01:42.302Z,16.17
2022-11-30T05:04:10.255Z,17.00
2022-11-30T05:06:38.145Z,16.38
2022-11-30T05:09:05.973Z,19.13
2022-11-30T05:11:33.896Z,17.27
2022-11-30T05:14:01.778Z,17.17
2022-11-30T05:16:29.759Z,18.88
2022-11-30T05:18:58.960Z,18.88
2022-11-30T05:21:26.799Z,17.13
2022-11-30T05:23:54.836Z,16.67
2022-11-30T05:26:22.711Z,18.35
2022-11-30T05:28:50.591Z,18.27
2022-11-30T05:31:18.671Z,18.10
2022-11-30T05:33:51.381Z,20.95
2022-11-30T05:36:21.151Z,20.63
2022-11-30T05:38:49.147Z,20.52
2022-11-30T05:41:17.171Z,19.58
2022-11-30T05:43:45.059Z,19.92
2022-11-30T05:46:12.965Z,19.75
2022-11-30T05:48:40.909Z,22.33
2022-11-30T05:51:10.623Z,22.05
2022-11-30T05:53:40.303Z,22.35
2022-11-30T05:56:10.517Z,20.83
2022-11-30T05:58:38.575Z,20.13
2022-11-30T06:01:06.830Z,20.10
2022-11-30T06:03:36.409Z,20.13
2022-11-30T06:06:04.583Z,23.30
2022-11-30T06:08:32.730Z,21.33
2022-11-30T06:11:03.364Z,24.00
2022-11-30T06:13:32.498Z,21.90
2022-11-30T06:16:00.939Z,21.65
2022-11-30T06:18:29.182Z,22.45
2022-11-30T06:21:01.147Z,20.75
2022-11-30T06:23:29.204Z,21.05
2022-11-30T06:25:57.221Z,22.95
2022-11-30T06:28:26.588Z,20.73
2022-11-30T06:30:54.380Z,23.25
2022-11-30T06:33:24.349Z,21.40
2022-11-30T06:35:52.555Z,23.83
2022-11-30T06:38:20.757Z,22.58
2022-11-30T06:40:49.110Z,21.67
2022-11-30T06:43:17.425Z,22.45
2022-11-30T06:45:47.259Z,22.17
2022-11-30T06:48:15.551Z,23.17
2022-11-30T06:50:49.705Z,23.80
2022-11-30T06:53:17.973Z,25.27
2022-11-30T06:55:45.833Z,22.70
2022-11-30T06:58:13.681Z,22.02
2022-11-30T07:00:42.789Z,23.42
2022-11-30T07:03:12.963Z,21.48
2022-11-30T07:05:43.791Z,22.48
2022-11-30T07:08:11.749Z,24.33
2022-11-30T07:10:44.241Z,22.42
2022-11-30T07:13:12.910Z,22.42
2022-11-30T07:15:41.252Z,23.83
2022-11-30T07:18:09.476Z,23.65
2022-11-30T07:20:39.274Z,26.23
2022-11-30T07:23:21.257Z,24.13
2022-11-30T07:26:09.374Z,25.10
2022-11-30T07:28:38.835Z,24.83
2022-11-30T07:31:19.213Z,22.30
2022-11-30T07:33:47.510Z,25.27
2022-11-30T07:36:18.034Z,26.02
2022-11-30T07:38:46.646Z,24.75
2022-11-30T07:41:15.109Z,24.35
2022-11-30T07:43:43.150Z,25.45
2022-11-30T07:46:13.160Z,25.75
2022-11-30T07:48:41.442Z,27.95
2022-11-30T07:51:11.951Z,28.55
2022-11-30T07:53:41.455Z,25.08
2022-11-30T07:56:11.783Z,26.63
2022-11-30T07:58:40.356Z,27.90
2022-11-30T08:01:09.580Z,28.83
2022-11-30T08:03:38.126Z,27.42
2022-11-30T08:06:08.050Z,24.67
2022-11-30T08:08:37.709Z,26.05
2022-11-30T08:11:08.960Z,25.45
2022-11-30T08:13:37.252Z,26.10
2022-11-30T08:16:07.007Z,27.88
2022-11-30T08:18:35.349Z,27.23
2022-11-30T08:21:05.162Z,29.13
2022-11-30T08:23:34.545Z,26.80
2022-11-30T08:26:04.515Z,28.73
2022-11-30T08:28:35.943Z,27.70
2022-11-30T08:31:06.024Z,28.35
2022-11-30T08:33:34.860Z,27.55
2022-11-30T08:36:13.627Z,28.42
2022-11-30T08:38:42.573Z,27.63
2022-11-30T08:41:12.106Z,26.95
2022-11-30T08:43:41.615Z,29.00
2022-11-30T08:46:49.232Z,26.73
2022-11-30T08:49:20.340Z,26.23
2022-11-30T08:54:39.127Z,31.35
2022-11-30T08:57:07.068Z,26.38
2022-11-30T08:59:36.271Z,29.15
2022-11-30T09:02:04.572Z,29.65
2022-11-30T09:04:32.412Z,28.33
2022-11-30T09:07:00.921Z,28.25
2022-11-30T09:09:28.952Z,27.48
2022-11-30T09:11:56.772Z,30.65
2022-11-30T09:14:24.617Z,28.27
2022-11-30T09:16:54.401Z,27.77
2022-11-30T09:19:22.803Z,31.23
2022-11-30T09:21:52.159Z,28.20
2022-11-30T09:24:21.263Z,28.30
2022-11-30T09:26:49.347Z,32.15
2022-11-30T09:29:17.315Z,29.95
2022-11-30T09:31:45.184Z,32.25
2022-11-30T09:34:14.432Z,31.25
2022-11-30T09:36:42.267Z,31.20
2022-11-30T09:39:13.066Z,30.08
2022-11-30T09:42:19.541Z,28.92
2022-11-30T09:44:58.209Z,31.67
2022-11-30T09:47:40.223Z,30.00
2022-11-30T09:50:15.742Z,30.63
2022-11-30T09:52:46.856Z,27.45
2022-11-30T09:55:23.181Z,27.73
2022-11-30T09:57:53.856Z,31.13
2022-11-30T10:00:23.315Z,31.10
2022-11-30T10:02:52.371Z,29.83
2022-11-30T10:05:24.023Z,29.13
2022-11-30T10:08:18.942Z,31.48
2022-11-30T10:10:54.278Z,28.35
2022-11-30T10:13:32.275Z,26.85
2022-11-30T10:16:13.112Z,29.67
2022-11-30T10:18:50.672Z,30.98
2022-11-30T10:21:32.303Z,30.17
2022-11-30T10:24:14.417Z,29.90
2022-11-30T10:26:49.128Z,28.52
2022-11-30T10:29:21.093Z,31.83
2022-11-30T10:31:52.612Z,33.33
2022-11-30T10:34:22.457Z,31.52
2022-11-30T10:36:57.024Z,31.48
2022-11-30T10:39:29.594Z,27.52
2022-11-30T10:42:05.188Z,29.48
2022-11-30T10:44:39.512Z,27.85
2022-11-30T10:47:14.500Z,30.23
2022-11-30T10:49:47.655Z,25.90
2022-11-30T10:52:19.677Z,28.23
2022-11-30T10:54:48.003Z,30.10
2022-11-30T10:57:16.185Z,28.08
2022-11-30T10:59:47.694Z,26.02
2022-11-30T11:02:40.712Z,27.38
2022-11-30T11:05:18.962Z,23.95
2022-11-30T11:07:51.696Z,24.65
2022-11-30T11:10:21.236Z,26.73
2022-11-30T11:12:51.744Z,26.23
2022-11-30T11:15:22.279Z,24.85
2022-11-30T11:17:51.489Z,26.42
2022-11-30T11:20:32.192Z,26.10
2022-11-30T11:23:02.849Z,27.08
2022-11-30T11:25:35.537Z,25.70
2022-11-30T11:28:09.637Z,23.80
2022-11-30T11:30:38.696Z,23.88
2022-11-30T11:33:21.402Z,22.65
2022-11-30T11:35:50.994Z,26.17
2022-11-30T11:38:27.092Z,22.63
2022-11-30T11:41:01.095Z,23.85
2022-11-30T11:43:31.417Z,23.50
2022-11-30T11:46:02.748Z,20.88
2022-11-30T11:48:36.573Z,22.02
2022-11-30T11:51:08.132Z,21.20
2022-11-30T11:53:48.720Z,21.15
2022-11-30T11:56:26.182Z,20.30
2022-11-30T11:58:59.652Z,21.48
2022-11-30T12:01:42.885Z,22.10
2022-11-30T12:04:33.806Z,20.23
2022-11-30T12:07:12.475Z,21.63
2022-11-30T12:09:54.923Z,21.70
2022-11-30T12:12:22.880Z,22.67
2022-11-30T12:14:50.773Z,22.15
2022-11-30T12:17:40.027Z,21.52
2022-11-30T12:20:18.413Z,23.00
2022-11-30T12:23:07.587Z,20.30
2022-11-30T12:25:43.061Z,23.85
2022-11-30T12:28:29.014Z,23.30
2022-11-30T12:31:10.555Z,22.20
2022-11-30T12:33:56.781Z,24.27
2022-11-30T12:36:31.528Z,21.58
2022-11-30T12:39:02.247Z,21.52
2022-11-30T12:41:40.872Z,23.25
2022-11-30T12:44:28.628Z,22.27
2022-11-30T12:47:06.823Z,24.30
2022-11-30T12:49:53.550Z,25.00
2022-11-30T12:52:31.641Z,23.85
2022-11-30T12:55:11.076Z,21.38
2022-11-30T12:57:48.604Z,22.77
2022-11-30T13:00:21.929Z,21.85
2022-11-30T13:03:09.721Z,23.30
2022-11-30T13:05:43.375Z,24.38
2022-11-30T13:08:21.018Z,23.70
2022-11-30T13:10:52.645Z,24.10
2022-11-30T13:13:26.770Z,22.60
2022-11-30T13:15:55.251Z,23.05
2022-11-30T13:18:24.983Z,23.88
2022-11-30T13:20:57.348Z,24.90
2022-11-30T13:23:35.987Z,24.25
2022-11-30T13:26:10.258Z,21.27
2022-11-30T13:28:56.073Z,21.90
2022-11-30T13:31:27.628Z,21.83
2022-11-30T13:33:59.846Z,22.77
2022-11-30T13:36:37.956Z,25.15
2022-11-30T13:39:27.616Z,25.88
2022-11-30T13:42:36.252Z,26.27
2022-11-30T13:45:29.309Z,25.50
2022-11-30T13:47:58.306Z,27.60
2022-11-30T13:50:34.286Z,27.08
2022-11-30T13:53:22.565Z,25.70
2022-11-30T13:56:23.256Z,31.40
2022-11-30T13:59:28.557Z,26.52
2022-11-30T14:02:41.996Z,34.85
2022-11-30T14:05:23.640Z,34.05
2022-11-30T14:08:11.047Z,34.78
2022-11-30T14:10:41.607Z,34.03
2022-11-30T14:13:33.150Z,41.83
2022-11-30T14:16:02.347Z,34.63
2022-11-30T14:18:42.134Z,30.30
2022-11-30T14:21:25.411Z,33.00
2022-11-30T14:24:02.174Z,35.75
2022-11-30T14:26:35.845Z,37.45
2022-11-30T14:29:10.540Z,35.55
2022-11-30T14:31:43.507Z,34.45
2022-11-30T14:34:17.673Z,39.70
2022-11-30T14:36:49.888Z,36.63
2022-11-30T14:39:29.205Z,35.88
2022-11-30T14:41:57.113Z,34.30
2022-11-30T14:44:24.979Z,39.50
2022-11-30T14:46:55.230Z,36.40
2022-11-30T14:49:25.431Z,37.10
2022-11-30T14:51:58.504Z,37.03
2022-11-30T14:54:43.462Z,39.63
2022-11-30T14:57:20.555Z,35.58
2022-11-30T14:59:51.491Z,39.13
2022-11-30T15:02:28.817Z,32.60
2022-11-30T15:04:59.533Z,37.75
2022-11-30T15:07:28.535Z,35.78
2022-11-30T15:10:04.495Z,36.28
2022-11-30T15:12:33.405Z,37.67
2022-11-30T15:15:15.884Z,39.13
2022-11-30T15:17:57.589Z,39.05
2022-11-30T15:20:29.992Z,38.97
2022-11-30T15:22:59.376Z,38.72
2022-11-30T15:25:34.273Z,39.47
2022-11-30T15:28:04.434Z,37.50
2022-11-30T15:30:33.931Z,35.30
2022-11-30T15:33:01.769Z,37.20
2022-11-30T15:35:50.272Z,38.55
2022-11-30T15:38:21.507Z,39.75
2022-11-30T15:40:55.150Z,36.33
2022-11-30T15:43:25.949Z,37.65
2022-11-30T15:45:56.758Z,39.53
2022-11-30T15:48:30.614Z,38.17
2022-11-30T15:51:01.047Z,37.65
2022-11-30T15:53:32.681Z,38.40
2022-11-30T15:56:03.311Z,39.60
2022-11-30T15:58:45.586Z,37.70
2022-11-30T16:01:16.871Z,37.10
2022-11-30T16:04:02.793Z,41.40
2022-11-30T16:06:35.373Z,35.35
2022-11-30T16:09:07.520Z,38.28
2022-11-30T16:11:36.595Z,41.55
2022-11-30T16:14:04.913Z,35.63
2022-11-30T16:16:33.899Z,39.58
2022-11-30T16:19:01.787Z,43.72
2022-11-30T16:21:29.624Z,43.78
2022-11-30T16:23:58.784Z,42.85
2022-11-30T16:26:50.135Z,41.67
2022-11-30T16:29:14.552Z,40.28
2022-11-30T16:31:42.429Z,45.25
2022-11-30T16:34:12.372Z,40.13
2022-11-30T16:36:40.188Z,43.38
2022-11-30T16:39:13.164Z,41.45
2022-11-30T16:41:41.066Z,41.17
2022-11-30T16:44:14.605Z,41.67
2022-11-30T16:46:42.504Z,42.10
2022-11-30T16:49:10.372Z,41.65
2022-11-30T16:51:38.449Z,42.53
2022-11-30T16:54:06.575Z,43.30
2022-11-30T16:56:35.772Z,41.10
2022-11-30T16:59:03.703Z,41.58
2022-11-30T17:01:36.274Z,39.38
2022-11-30T17:04:08.375Z,43.42
2022-11-30T17:06:36.400Z,40.42
2022-11-30T17:09:06.925Z,41.65
2022-11-30T17:11:38.885Z,40.40
2022-11-30T17:14:06.758Z,39.05
2022-11-30T17:16:34.813Z,38.67
2022-11-30T17:19:02.718Z,40.03
2022-11-30T17:21:33.635Z,42.60
2022-11-30T17:24:01.954Z,42.50
2022-11-30T17:26:30.114Z,43.53
2022-11-30T17:28:59.353Z,40.80
2022-11-30T17:31:27.363Z,42.38
2022-11-30T17:33:55.270Z,43.65
2022-11-30T17:36:23.428Z,40.03
2022-11-30T17:38:51.327Z,43.58
2022-11-30T17:41:20.569Z,41.97
2022-11-30T17:43:49.002Z,40.35
2022-11-30T17:46:19.193Z,40.03
2022-11-30T17:48:47.344Z,45.70
2022-11-30T17:51:15.421Z,42.17
2022-11-30T17:53:44.996Z,38.63
2022-11-30T17:56:14.955Z,41.55
2022-11-30T17:58:44.670Z,39.65
2022-11-30T18:01:18.554Z,40.80
2022-11-30T18:03:46.764Z,40.25
2022-11-30T18:06:15.286Z,37.90
2022-11-30T18:08:43.320Z,40.53
2022-11-30T18:11:11.428Z,41.55
2022-11-30T18:13:39.376Z,35.33
2022-11-30T18:16:09.450Z,40.35
2022-11-30T18:18:42.814Z,40.78
2022-11-30T18:21:15.154Z,43.72
2022-11-30T18:23:43.118Z,43.25
2022-11-30T18:26:14.796Z,43.38
2022-11-30T18:28:42.749Z,43.05
2022-11-30T18:31:10.901Z,44.78
2022-11-30T18:33:40.266Z,44.92
2022-11-30T18:36:08.918Z,42.80
2022-11-30T18:38:38.802Z,41.60
2022-11-30T18:41:07.507Z,40.97
2022-11-30T18:43:35.376Z,41.53
2022-11-30T18:46:04.098Z,42.63
2022-11-30T18:48:31.975Z,43.67
2022-11-30T18:51:01.175Z,40.47
2022-11-30T18:53:29.013Z,40.92
2022-11-30T18:56:07.442Z,44.28
2022-11-30T18:58:35.317Z,41.05
2022-11-30T19:01:08.999Z,41.63
2022-11-30T19:03:37.321Z,41.45
2022-11-30T19:06:08.164Z,43.78
2022-11-30T19:08:36.475Z,42.15
2022-11-30T19:11:05.678Z,42.95
2022-11-30T19:13:34.099Z,41.08
2022-11-30T19:16:03.452Z,41.63
2022-11-30T19:18:31.737Z,38.17
2022-11-30T19:21:00.198Z,43.05
2022-11-30T19:23:29.428Z,40.70
2022-11-30T19:26:00.701Z,39.40
2022-11-30T19:28:29.958Z,39.80
2022-11-30T19:30:58.636Z,41.22
2022-11-30T19:33:26.982Z,39.63
2022-11-30T19:36:00.463Z,39.28
2022-11-30T19:38:29.679Z,39.45
2022-11-30T19:40:57.825Z,40.28
2022-11-30T19:43:25.663Z,40.90
2022-11-30T19:45:53.972Z,40.80
2022-11-30T19:48:21.834Z,38.47
2022-11-30T19:50:49.635Z,40.55
2022-11-30T19:53:17.450Z,41.35
2022-11-30T19:55:46.677Z,39.22
2022-11-30T19:58:14.503Z,38.65
2022-11-30T20:00:42.489Z,38.53
2022-11-30T20:03:10.446Z,37.63
2022-11-30T20:05:38.408Z,39.13
2022-11-30T20:08:07.003Z,39.08
2022-11-30T20:10:34.896Z,39.05
2022-11-30T20:13:04.079Z,39.17
2022-11-30T20:15:32.089Z,38.88
2022-11-30T20:18:00.182Z,36.72
2022-11-30T20:20:28.243Z,35.20
2022-11-30T20:22:56.256Z,37.42
2022-11-30T20:25:24.107Z,38.75
2022-11-30T20:27:52.189Z,40.30
2022-11-30T20:30:21.945Z,40.10
2022-11-30T20:32:49.828Z,42.10
2022-11-30T20:35:17.765Z,38.08
2022-11-30T20:37:45.667Z,36.72
2022-11-30T20:40:13.846Z,38.28
2022-11-30T20:42:41.684Z,36.38
2022-11-30T20:45:09.856Z,40.67
2022-11-30T20:47:39.288Z,38.80
2022-11-30T20:50:08.216Z,41.10
2022-11-30T20:52:36.251Z,39.22
2022-11-30T20:55:04.083Z,39.67
2022-11-30T20:57:32.074Z,38.88
2022-11-30T20:59:59.956Z,38.17
2022-11-30T21:02:28.000Z,38.53
2022-11-30T21:04:58.358Z,39.72
2022-11-30T21:07:26.222Z,36.50
2022-11-30T21:09:55.460Z,38.83
2022-11-30T21:12:23.335Z,39.05
2022-11-30T21:14:51.154Z,36.85
2022-11-30T21:17:19.213Z,38.03
2022-11-30T21:19:47.069Z,40.25
2022-11-30T21:22:16.282Z,39.58
2022-11-30T21:24:44.095Z,39.20
2022-11-30T21:27:12.191Z,39.15
2022-11-30T21:29:39.998Z,39.15
2022-11-30T21:32:07.823Z,37.08
2022-11-30T21:34:35.690Z,37.83
2022-11-30T21:37:03.873Z,38.45
2022-11-30T21:39:35.092Z,37.17
2022-11-30T21:42:02.923Z,37.00
2022-11-30T21:44:31.394Z,38.17
2022-11-30T21:46:59.231Z,37.83
2022-11-30T21:49:27.725Z,35.55
2022-11-30T21:51:55.948Z,35.15
2022-11-30T21:54:23.827Z,36.20
2022-11-30T21:56:53.177Z,36.90
2022-11-30T21:59:20.984Z,34.55
2022-11-30T22:01:48.808Z,38.10
2022-11-30T22:04:16.988Z,36.13
2022-11-30T22:06:44.909Z,35.42
2022-11-30T22:09:15.233Z,36.65
2022-11-30T22:11:45.476Z,37.80
2022-11-30T22:14:16.709Z,35.58
2022-11-30T22:16:44.862Z,34.10
2022-11-30T22:19:12.741Z,36.95
2022-11-30T22:21:44.067Z,36.63
2022-11-30T22:24:14.941Z,36.30
2022-11-30T22:26:44.535Z,34.97
2022-11-30T22:29:16.260Z,36.15
2022-11-30T22:31:46.277Z,37.97
2022-11-30T22:34:14.756Z,39.63
2022-11-30T22:36:44.738Z,39.08
2022-11-30T22:39:14.468Z,38.45
2022-11-30T22:41:45.212Z,39.88
2022-11-30T22:44:16.229Z,35.80
2022-11-30T22:46:44.981Z,38.40
2022-11-30T22:49:19.886Z,41.70
2022-11-30T22:51:48.920Z,40.05
2022-11-30T22:54:16.891Z,39.50
2022-11-30T22:56:46.270Z,43.28
2022-11-30T22:59:16.331Z,40.78
2022-11-30T23:01:45.854Z,40.25
2022-11-30T23:04:15.760Z,41.13
2022-11-30T23:06:44.337Z,42.45
2022-11-30T23:09:14.637Z,42.75
2022-11-30T23:11:42.759Z,42.67
2022-11-30T23:14:12.088Z,44.13
2022-11-30T23:16:41.717Z,45.50
2022-11-30T23:19:09.942Z,46.33
2022-11-30T23:21:41.616Z,44.92
2022-11-30T23:24:12.986Z,42.55
2022-11-30T23:26:40.840Z,44.72
2022-11-30T23:29:12.028Z,49.00
2022-11-30T23:31:42.754Z,46.67
2022-11-30T23:34:13.004Z,48.75
2022-11-30T23:36:40.824Z,47.83
2022-11-30T23:39:10.335Z,52.60
2022-11-30T23:41:38.556Z,47.88
2022-11-30T23:44:07.271Z,52.35
2022-11-30T23:46:35.721Z,47.13
2022-11-30T23:49:05.469Z,51.17
2022-11-30T23:51:33.319Z,49.90
2022-11-30T23:54:01.151Z,50.42
2022-11-30T23:56:29.069Z,50.00
